Time;durP1;ratioP1;P1;durP2;ratioP2;P2;SDS_P1;SDS_P2;PMS_P1;PMS_P2;Temp;Humidity;BMP_temperature;BMP_pressure;BME280_temperature;BME280_humidity;BME280_pressure;Samples;Min_cycle;Max_cycle;Signal;HPM_P1;HPM_P2
2022/07/09 00:02:03;;;;;;;;;;;15.90;99.90;;;;;;5023023;28;19905;-58
2022/07/09 00:04:28;;;;;;;;;;;15.90;99.90;;;;;;5034253;28;20362;-57
2022/07/09 00:06:53;;;;;;;;;;;15.90;99.90;;;;;;5034046;28;19948;-60
2022/07/09 00:09:19;;;;;;;;;;;15.80;99.90;;;;;;5033977;28;20352;-57
2022/07/09 00:11:44;;;;;;;;;;;15.80;99.90;;;;;;5033696;28;19912;-56
2022/07/09 00:14:10;;;;;;;;;;;15.70;99.90;;;;;;5034005;28;19905;-57
2022/07/09 00:16:35;;;;;;;;;;;15.80;99.90;;;;;;5033840;28;19905;-55
2022/07/09 00:19:01;;;;;;;;;;;15.80;99.90;;;;;;5033841;28;19909;-58
2022/07/09 00:21:27;;;;;;;;;;;15.70;99.90;;;;;;5033535;28;19917;-56
2022/07/09 00:23:52;;;;;;;;;;;15.70;99.90;;;;;;5033586;28;19905;-58
2022/07/09 00:26:18;;;;;;;;;;;15.60;99.90;;;;;;5033710;28;20000;-59
2022/07/09 00:28:44;;;;;;;;;;;15.60;99.90;;;;;;5032229;28;19958;-60
2022/07/09 00:31:10;;;;;;;;;;;15.60;99.90;;;;;;5029705;28;19910;-60
2022/07/09 00:33:36;;;;;;;;;;;15.60;99.90;;;;;;5024781;28;20370;-59
2022/07/09 00:36:01;;;;;;;;;;;15.60;99.90;;;;;;5032752;28;19912;-59
2022/07/09 00:38:27;;;;;;;;;;;15.60;99.90;;;;;;5034952;28;19905;-56
2022/07/09 00:40:52;;;;;;;;;;;15.60;99.90;;;;;;5037068;28;19912;-62
2022/07/09 00:43:19;;;;;;;;;;;15.60;99.90;;;;;;5037083;28;19932;-59
2022/07/09 00:45:45;;;;;;;;;;;15.50;99.90;;;;;;5034626;28;20366;-59
2022/07/09 00:48:11;;;;;;;;;;;15.50;99.90;;;;;;5036590;28;19928;-58
2022/07/09 00:50:36;;;;;;;;;;;15.60;99.90;;;;;;5037330;28;19905;-60
2022/07/09 00:53:02;;;;;;;;;;;15.60;99.90;;;;;;5035669;28;19912;-60
2022/07/09 00:55:28;;;;;;;;;;;15.50;99.90;;;;;;5036542;28;19905;-59
2022/07/09 00:57:54;;;;;;;;;;;15.50;99.90;;;;;;5037097;28;19905;-59
2022/07/09 01:00:20;;;;;;;;;;;15.50;99.90;;;;;;5036956;28;20420;-58
2022/07/09 01:02:47;;;;;;;;;;;15.50;99.90;;;;;;5037426;28;19905;-58
2022/07/09 01:05:12;;;;;;;;;;;15.40;99.90;;;;;;5037490;28;19959;-59
2022/07/09 01:07:38;;;;;;;;;;;15.40;99.90;;;;;;5037518;28;19909;-59
2022/07/09 01:10:04;;;;;;;;;;;15.50;99.90;;;;;;5036682;28;19905;-56
2022/07/09 01:12:30;;;;;;;;;;;15.40;99.90;;;;;;5036773;28;20009;-60
2022/07/09 01:14:56;;;;;;;;;;;15.30;99.90;;;;;;5037187;28;19945;-59
2022/07/09 01:17:21;;;;;;;;;;;15.40;99.90;;;;;;5037311;28;19905;-59
2022/07/09 01:19:48;;;;;;;;;;;15.40;99.90;;;;;;5036666;28;19909;-58
2022/07/09 01:22:13;;;;;;;;;;;15.40;99.90;;;;;;5036698;28;20374;-58
2022/07/09 01:24:39;;;;;;;;;;;15.40;99.90;;;;;;5036476;28;20043;-58
2022/07/09 01:27:05;;;;;;;;;;;15.40;99.90;;;;;;5036274;28;20366;-59
2022/07/09 01:29:31;;;;;;;;;;;15.30;99.90;;;;;;5036272;28;20328;-58
2022/07/09 01:31:56;;;;;;;;;;;15.30;99.90;;;;;;5036201;28;19905;-59
2022/07/09 01:34:22;;;;;;;;;;;15.30;99.90;;;;;;5036034;28;19905;-56
2022/07/09 01:36:47;;;;;;;;;;;15.30;99.90;;;;;;5036589;28;19999;-58
2022/07/09 01:39:13;;;;;;;;;;;15.20;99.90;;;;;;5036926;28;20281;-58
2022/07/09 01:41:38;;;;;;;;;;;15.20;99.90;;;;;;5036148;28;19943;-58
2022/07/09 01:44:04;;;;;;;;;;;15.20;99.90;;;;;;5036005;28;19912;-57
2022/07/09 01:46:29;;;;;;;;;;;15.20;99.90;;;;;;5035996;28;19912;-58
2022/07/09 01:48:55;;;;;;;;;;;15.20;99.90;;;;;;5036128;28;20012;-59
2022/07/09 01:51:22;;;;;;;;;;;15.20;99.90;;;;;;5035339;28;20374;-58
2022/07/09 01:53:47;;;;;;;;;;;15.10;99.90;;;;;;5035931;28;19905;-57
2022/07/09 01:56:13;;;;;;;;;;;15.20;99.90;;;;;;5035704;28;19951;-59
2022/07/09 01:58:38;;;;;;;;;;;15.20;99.90;;;;;;5035830;28;19920;-58
2022/07/09 02:01:04;;;;;;;;;;;15.30;99.90;;;;;;5034258;28;19905;-57
2022/07/09 02:03:29;;;;;;;;;;;15.30;99.90;;;;;;5035440;28;20386;-59
2022/07/09 02:05:56;;;;;;;;;;;15.30;99.90;;;;;;5035550;28;19905;-55
2022/07/09 02:08:22;;;;;;;;;;;15.30;99.90;;;;;;5035272;28;19923;-59
2022/07/09 02:10:48;;;;;;;;;;;15.30;99.90;;;;;;5035996;28;19905;-58
2022/07/09 02:13:13;;;;;;;;;;;15.30;99.90;;;;;;5035255;28;19999;-59
2022/07/09 02:15:39;;;;;;;;;;;15.30;99.90;;;;;;5035178;28;19905;-59
2022/07/09 02:18:04;;;;;;;;;;;15.30;99.90;;;;;;5035136;28;20329;-59
2022/07/09 02:20:30;;;;;;;;;;;15.20;99.90;;;;;;5034874;28;19935;-59
2022/07/09 02:22:56;;;;;;;;;;;15.20;99.90;;;;;;5035402;28;20318;-58
2022/07/09 02:25:21;;;;;;;;;;;15.30;99.90;;;;;;5035186;28;19912;-59
2022/07/09 02:27:47;;;;;;;;;;;15.30;99.90;;;;;;5033759;28;19948;-58
2022/07/09 02:30:13;;;;;;;;;;;15.30;99.90;;;;;;5034832;28;20003;-57
2022/07/09 02:32:39;;;;;;;;;;;15.30;99.90;;;;;;5034935;28;19916;-58
2022/07/09 02:35:05;;;;;;;;;;;15.30;99.90;;;;;;5034664;28;20392;-58
2022/07/09 02:37:31;;;;;;;;;;;15.40;99.90;;;;;;5034822;28;19905;-59
2022/07/09 02:39:57;;;;;;;;;;;15.30;99.90;;;;;;5033474;28;20010;-58
2022/07/09 02:42:23;;;;;;;;;;;15.30;99.90;;;;;;5034913;28;19945;-59
2022/07/09 02:44:48;;;;;;;;;;;15.30;99.90;;;;;;5033845;28;20301;-58
2022/07/09 02:47:14;;;;;;;;;;;15.20;99.90;;;;;;5035648;28;19990;-58
2022/07/09 02:49:39;;;;;;;;;;;15.30;99.90;;;;;;5035501;28;19955;-55
2022/07/09 02:52:06;;;;;;;;;;;15.30;99.90;;;;;;5035749;28;19909;-57
2022/07/09 02:54:32;;;;;;;;;;;15.30;99.90;;;;;;5037681;28;19905;-57
2022/07/09 02:56:57;;;;;;;;;;;15.30;99.90;;;;;;5040203;28;19912;-58
2022/07/09 02:59:23;;;;;;;;;;;15.30;99.90;;;;;;5038355;28;19959;-56
2022/07/09 03:01:48;;;;;;;;;;;15.40;99.90;;;;;;5039256;28;19909;-58
2022/07/09 03:04:14;;;;;;;;;;;15.40;99.90;;;;;;5040036;28;19905;-56
2022/07/09 03:06:39;;;;;;;;;;;15.40;99.90;;;;;;5038382;28;19957;-58
2022/07/09 03:09:06;;;;;;;;;;;15.40;99.90;;;;;;5038831;28;19977;-57
2022/07/09 03:11:31;;;;;;;;;;;15.40;99.90;;;;;;5038794;28;20011;-59
2022/07/09 03:13:57;;;;;;;;;;;15.40;99.90;;;;;;5037602;28;19944;-58
2022/07/09 03:16:23;;;;;;;;;;;15.40;99.90;;;;;;5035537;28;19905;-58
2022/07/09 03:18:48;;;;;;;;;;;15.40;99.90;;;;;;5035039;28;20266;-59
2022/07/09 03:21:14;;;;;;;;;;;15.40;99.90;;;;;;5047463;22;19960;-54
2022/07/09 03:23:39;;;;;;;;;;;15.40;99.90;;;;;;5033537;28;19904;-57
2022/07/09 03:26:05;;;;;;;;;;;15.30;99.90;;;;;;5033593;28;19923;-55
2022/07/09 03:28:30;;;;;;;;;;;15.40;99.90;;;;;;5033389;28;20290;-54
2022/07/09 03:30:56;;;;;;;;;;;15.40;99.90;;;;;;5033638;28;19909;-54
2022/07/09 03:33:21;;;;;;;;;;;15.40;99.90;;;;;;5033637;28;19909;-55
2022/07/09 03:35:47;;;;;;;;;;;15.40;99.90;;;;;;5032176;28;19905;-57
2022/07/09 03:38:12;;;;;;;;;;;15.40;99.90;;;;;;5033548;28;19909;-57
2022/07/09 03:40:38;;;;;;;;;;;15.40;99.90;;;;;;5033603;28;19980;-55
2022/07/09 03:43:03;;;;;;;;;;;15.50;99.90;;;;;;5033659;28;20343;-56
2022/07/09 03:45:29;;;;;;;;;;;15.50;99.90;;;;;;5033368;28;19911;-57
2022/07/09 03:47:54;;;;;;;;;;;15.50;99.90;;;;;;5033194;28;19909;-57
2022/07/09 03:50:20;;;;;;;;;;;15.60;99.90;;;;;;5033729;28;19927;-58
2022/07/09 03:52:45;;;;;;;;;;;15.50;99.90;;;;;;5033242;28;19905;-58
2022/07/09 03:55:11;;;;;;;;;;;15.50;99.90;;;;;;5033283;28;19905;-57
2022/07/09 03:57:37;;;;;;;;;;;15.50;99.90;;;;;;5033783;28;19906;-56
2022/07/09 04:00:04;;;;;;;;;;;15.60;99.90;;;;;;5033041;28;20412;-56
2022/07/09 04:02:29;;;;;;;;;;;15.60;99.90;;;;;;5033181;28;20322;-58
2022/07/09 04:04:56;;;;;;;;;;;15.60;99.90;;;;;;5033654;28;19912;-58
2022/07/09 04:07:22;;;;;;;;;;;15.60;99.90;;;;;;5033332;28;20424;-57
2022/07/09 04:09:47;;;;;;;;;;;15.70;99.90;;;;;;5033122;28;19905;-56
2022/07/09 04:12:13;;;;;;;;;;;15.70;99.90;;;;;;5033139;28;19905;-54
2022/07/09 04:14:38;;;;;;;;;;;15.60;99.90;;;;;;5036100;28;20365;-53
2022/07/09 04:17:05;;;;;;;;;;;15.60;99.90;;;;;;5035697;28;20000;-54
2022/07/09 04:19:31;;;;;;;;;;;15.60;99.90;;;;;;5037225;28;19909;-55
2022/07/09 04:21:57;;;;;;;;;;;15.60;99.90;;;;;;5036899;28;19920;-56
2022/07/09 04:24:22;;;;;;;;;;;15.60;99.90;;;;;;5036942;28;19912;-52
2022/07/09 04:26:48;;;;;;;;;;;15.60;99.90;;;;;;5037393;28;19912;-52
2022/07/09 04:29:13;;;;;;;;;;;15.60;99.90;;;;;;5037041;28;19956;-56
2022/07/09 04:31:39;;;;;;;;;;;15.60;99.90;;;;;;5037091;28;19905;-56
2022/07/09 04:34:04;;;;;;;;;;;15.70;99.90;;;;;;5036500;28;19909;-56
2022/07/09 04:36:31;;;;;;;;;;;15.70;99.90;;;;;;5036736;28;19951;-53
2022/07/09 04:38:56;;;;;;;;;;;15.70;99.90;;;;;;5036754;28;20285;-54
2022/07/09 04:41:22;;;;;;;;;;;15.80;99.90;;;;;;5036593;28;19912;-55
2022/07/09 04:43:47;;;;;;;;;;;15.90;99.90;;;;;;5036548;28;19905;-55
2022/07/09 04:46:13;;;;;;;;;;;15.90;99.90;;;;;;5036383;28;19905;-57
2022/07/09 04:48:39;;;;;;;;;;;15.90;99.90;;;;;;5036293;28;20393;-52
2022/07/09 04:51:05;;;;;;;;;;;16.00;99.90;;;;;;5036513;28;19920;-57
2022/07/09 04:53:30;;;;;;;;;;;16.00;99.90;;;;;;5036165;28;19904;-57
2022/07/09 04:55:56;;;;;;;;;;;16.00;99.90;;;;;;5036103;28;20286;-56
2022/07/09 04:58:22;;;;;;;;;;;16.00;99.90;;;;;;5037068;28;20362;-53
2022/07/09 05:00:47;;;;;;;;;;;16.00;99.90;;;;;;5036041;28;19976;-57
2022/07/09 05:03:13;;;;;;;;;;;16.00;99.90;;;;;;5036412;28;20281;-56
2022/07/09 05:05:38;;;;;;;;;;;16.10;99.90;;;;;;5035943;28;20357;-57
2022/07/09 05:08:04;;;;;;;;;;;16.20;99.90;;;;;;5036055;28;19955;-56
2022/07/09 05:10:29;;;;;;;;;;;16.20;99.90;;;;;;5036361;28;19912;-54
2022/07/09 05:12:55;;;;;;;;;;;16.30;99.90;;;;;;5036148;28;19909;-57
2022/07/09 05:15:20;;;;;;;;;;;16.30;99.90;;;;;;5035808;28;19955;-55
2022/07/09 05:17:46;;;;;;;;;;;16.30;99.90;;;;;;5035832;28;19956;-57
2022/07/09 05:20:11;;;;;;;;;;;16.40;99.90;;;;;;5036154;28;19916;-56
2022/07/09 05:22:37;;;;;;;;;;;16.50;99.90;;;;;;5035788;28;20428;-55
2022/07/09 05:25:04;;;;;;;;;;;16.50;99.90;;;;;;5035292;28;19996;-58
2022/07/09 05:27:30;;;;;;;;;;;16.50;99.90;;;;;;5036137;28;19905;-56
2022/07/09 05:29:55;;;;;;;;;;;16.60;99.90;;;;;;5035861;28;20287;-56
2022/07/09 05:32:21;;;;;;;;;;;16.60;99.90;;;;;;5034682;28;19916;-57
2022/07/09 05:34:46;;;;;;;;;;;16.60;99.90;;;;;;5035896;28;20003;-55
2022/07/09 05:37:12;;;;;;;;;;;16.60;99.90;;;;;;5035768;28;19905;-57
2022/07/09 05:39:38;;;;;;;;;;;16.70;99.90;;;;;;5035244;28;20458;-54
2022/07/09 05:42:04;;;;;;;;;;;16.70;99.90;;;;;;5035463;28;19972;-58
2022/07/09 05:44:30;;;;;;;;;;;16.70;99.90;;;;;;5035586;28;19999;-56
2022/07/09 05:46:55;;;;;;;;;;;16.80;99.90;;;;;;5035810;28;19948;-57
2022/07/09 05:49:21;;;;;;;;;;;16.70;99.90;;;;;;5035423;28;20393;-57
2022/07/09 05:51:46;;;;;;;;;;;16.70;99.90;;;;;;5035175;28;19905;-58
2022/07/09 05:54:12;;;;;;;;;;;16.80;99.90;;;;;;5035401;28;19988;-58
2022/07/09 05:56:38;;;;;;;;;;;16.90;99.90;;;;;;5035457;28;19931;-57
2022/07/09 05:59:04;;;;;;;;;;;16.90;99.90;;;;;;5035288;28;19909;-57
2022/07/09 06:01:30;;;;;;;;;;;16.90;99.90;;;;;;5034407;28;19905;-59
2022/07/09 06:03:55;;;;;;;;;;;16.90;99.90;;;;;;5035587;28;19905;-59
2022/07/09 06:06:21;;;;;;;;;;;17.00;99.90;;;;;;5035414;28;20002;-57
2022/07/09 06:08:46;;;;;;;;;;;17.10;99.90;;;;;;5035329;28;20332;-57
2022/07/09 06:11:12;;;;;;;;;;;17.20;99.90;;;;;;5035404;28;20287;-58
2022/07/09 06:13:37;;;;;;;;;;;17.10;99.90;;;;;;5035811;28;19905;-57
2022/07/09 06:16:03;;;;;;;;;;;17.10;99.90;;;;;;5035262;28;19951;-57
2022/07/09 06:18:28;;;;;;;;;;;17.10;99.90;;;;;;5035364;28;19970;-57
2022/07/09 06:20:54;;;;;;;;;;;17.20;99.90;;;;;;5035381;28;19925;-57
2022/07/09 06:23:21;;;;;;;;;;;17.30;99.90;;;;;;5035008;28;20362;-53
2022/07/09 06:25:46;;;;;;;;;;;17.30;99.90;;;;;;5035063;28;19905;-58
2022/07/09 06:28:12;;;;;;;;;;;17.20;99.90;;;;;;5034989;28;19919;-55
2022/07/09 06:30:38;;;;;;;;;;;17.20;99.90;;;;;;5034799;28;19995;-55
2022/07/09 06:33:03;;;;;;;;;;;17.30;99.90;;;;;;5034929;28;20328;-54
2022/07/09 06:35:29;;;;;;;;;;;17.40;99.90;;;;;;5034794;28;20274;-54
2022/07/09 06:37:54;;;;;;;;;;;17.40;99.90;;;;;;5034379;28;19926;-56
2022/07/09 06:40:20;;;;;;;;;;;17.40;99.90;;;;;;5034640;28;19909;-57
2022/07/09 06:42:45;;;;;;;;;;;17.50;99.90;;;;;;5034393;28;19952;-55
2022/07/09 06:45:11;;;;;;;;;;;17.40;99.90;;;;;;5034523;28;19988;-56
2022/07/09 06:47:36;;;;;;;;;;;17.60;99.90;;;;;;5034360;28;19951;-55
2022/07/09 06:50:02;;;;;;;;;;;17.60;99.90;;;;;;5032902;28;19917;-58
2022/07/09 06:52:28;;;;;;;;;;;17.60;99.90;;;;;;5034579;28;19905;-57
2022/07/09 06:54:53;;;;;;;;;;;17.60;99.90;;;;;;5033986;28;19905;-57
2022/07/09 06:57:19;;;;;;;;;;;17.60;99.90;;;;;;5034287;28;19912;-56
2022/07/09 06:59:47;;;;;;;;;;;17.60;99.90;;;;;;5032478;28;20298;-56
2022/07/09 07:02:16;;;;;;;;;;;17.60;99.90;;;;;;5033716;28;20298;-54
2022/07/09 07:04:41;;;;;;;;;;;17.60;99.90;;;;;;5032457;28;19954;-54
2022/07/09 07:07:07;;;;;;;;;;;17.60;99.90;;;;;;5033794;28;20007;-58
2022/07/09 07:09:32;;;;;;;;;;;17.60;99.90;;;;;;5033730;28;19905;-55
2022/07/09 07:11:58;;;;;;;;;;;17.70;99.90;;;;;;5033555;28;19920;-58
2022/07/09 07:14:24;;;;;;;;;;;17.70;99.90;;;;;;5033610;28;19912;-59
2022/07/09 07:16:50;;;;;;;;;;;17.80;99.90;;;;;;5033826;28;19909;-58
2022/07/09 07:19:16;;;;;;;;;;;17.90;99.90;;;;;;5033531;28;19909;-56
2022/07/09 07:21:42;;;;;;;;;;;17.90;99.90;;;;;;5033225;28;19913;-59
2022/07/09 07:24:08;;;;;;;;;;;18.00;99.90;;;;;;5033366;28;19905;-59
2022/07/09 07:26:34;;;;;;;;;;;18.10;99.90;;;;;;5033543;28;19905;-60
2022/07/09 07:28:59;;;;;;;;;;;18.10;99.90;;;;;;5033591;28;19947;-56
2022/07/09 07:31:25;;;;;;;;;;;18.30;99.90;;;;;;5033627;28;19906;-59
2022/07/09 07:33:51;;;;;;;;;;;18.40;99.90;;;;;;5033221;28;19905;-59
2022/07/09 07:36:17;;;;;;;;;;;18.40;99.90;;;;;;5033908;28;19905;-59
2022/07/09 07:38:42;;;;;;;;;;;18.50;99.90;;;;;;5033230;28;20294;-59
2022/07/09 07:41:08;;;;;;;;;;;18.50;99.90;;;;;;5033789;28;19911;-56
2022/07/09 07:43:33;;;;;;;;;;;18.60;99.90;;;;;;5033583;28;19909;-59
2022/07/09 07:45:59;;;;;;;;;;;18.60;99.90;;;;;;5034115;28;19905;-59
2022/07/09 07:48:27;;;;;;;;;;;18.60;99.90;;;;;;5036532;28;19968;-59
2022/07/09 07:50:53;;;;;;;;;;;18.60;99.90;;;;;;5040170;28;20383;-60
2022/07/09 07:53:19;;;;;;;;;;;18.70;99.90;;;;;;5039910;28;19987;-58
2022/07/09 07:55:44;;;;;;;;;;;18.70;99.90;;;;;;5040379;28;19998;-60
2022/07/09 07:58:10;;;;;;;;;;;18.80;99.90;;;;;;5040499;28;19905;-59
2022/07/09 08:00:37;;;;;;;;;;;18.90;99.90;;;;;;5040097;28;19916;-59
2022/07/09 08:03:03;;;;;;;;;;;19.00;99.90;;;;;;5040282;28;19945;-59
2022/07/09 08:05:28;;;;;;;;;;;19.10;99.90;;;;;;5040348;28;19971;-59
2022/07/09 08:07:54;;;;;;;;;;;19.20;99.90;;;;;;5041157;28;19912;-59
2022/07/09 08:10:19;;;;;;;;;;;19.20;99.90;;;;;;5040067;28;19996;-55
2022/07/09 08:12:45;;;;;;;;;;;19.10;99.90;;;;;;5039974;28;20267;-59
2022/07/09 08:15:11;;;;;;;;;;;19.10;99.90;;;;;;5040136;28;19912;-60
2022/07/09 08:17:37;;;;;;;;;;;19.30;99.90;;;;;;5040028;28;19940;-59
2022/07/09 08:20:03;;;;;;;;;;;19.40;99.90;;;;;;5039441;28;19975;-59
2022/07/09 08:22:28;;;;;;;;;;;19.50;99.90;;;;;;5039588;28;19996;-59
2022/07/09 08:24:54;;;;;;;;;;;19.60;99.90;;;;;;5036847;28;19920;-59
2022/07/09 08:27:20;;;;;;;;;;;19.60;99.90;;;;;;5037653;28;20290;-59
2022/07/09 08:29:48;;;;;;;;;;;19.50;99.90;;;;;;5037607;28;19916;-57
2022/07/09 08:32:14;;;;;;;;;;;19.40;99.90;;;;;;5038451;28;19905;-58
2022/07/09 08:34:39;;;;;;;;;;;19.50;99.90;;;;;;5038304;28;19905;-59
2022/07/09 08:37:05;;;;;;;;;;;19.60;99.90;;;;;;5032221;28;19913;-57
2022/07/09 08:39:31;;;;;;;;;;;19.80;99.90;;;;;;5019792;28;20329;-59
2022/07/09 08:41:58;;;;;;;;;;;19.90;99.90;;;;;;5019626;28;20329;-58
2022/07/09 08:44:26;;;;;;;;;;;20.00;99.90;;;;;;5018795;28;19905;-56
2022/07/09 08:46:51;;;;;;;;;;;20.10;99.90;;;;;;5029199;28;19951;-58
2022/07/09 08:49:17;;;;;;;;;;;20.10;99.90;;;;;;5037755;28;19912;-56
2022/07/09 08:51:44;;;;;;;;;;;20.20;99.90;;;;;;5037834;28;20362;-59
2022/07/09 08:54:10;;;;;;;;;;;20.40;99.90;;;;;;5037727;28;19935;-60
2022/07/09 08:56:35;;;;;;;;;;;20.40;99.90;;;;;;5036329;28;19905;-59
2022/07/09 08:59:01;;;;;;;;;;;20.40;99.90;;;;;;5036746;28;19970;-59
2022/07/09 09:01:27;;;;;;;;;;;20.40;99.90;;;;;;5034378;28;19905;-60
2022/07/09 09:03:53;;;;;;;;;;;20.50;99.90;;;;;;5034184;28;20411;-59
2022/07/09 09:06:20;;;;;;;;;;;20.60;99.90;;;;;;5034549;28;19996;-59
2022/07/09 09:08:46;;;;;;;;;;;20.80;99.90;;;;;;5034450;28;19905;-59
2022/07/09 09:11:16;;;;;;;;;;;21.00;99.90;;;;;;5028921;28;20302;-58
2022/07/09 09:13:45;;;;;;;;;;;20.90;99.90;;;;;;5023408;28;20362;-54
2022/07/09 09:16:11;;;;;;;;;;;20.80;99.90;;;;;;5016541;28;19912;-57
2022/07/09 09:18:39;;;;;;;;;;;20.70;99.90;;;;;;5015742;28;19905;-56
2022/07/09 09:21:06;;;;;;;;;;;20.70;99.90;;;;;;5015683;28;19972;-58
2022/07/09 09:23:38;;;;;;;;;;;21.00;99.90;;;;;;5016149;28;19920;-58
2022/07/09 09:26:08;;;;;;;;;;;21.20;99.90;;;;;;5027082;22;19921;-57
2022/07/09 09:28:33;;;;;;;;;;;21.40;99.90;;;;;;5013849;28;19932;-57
2022/07/09 09:30:59;;;;;;;;;;;21.40;99.90;;;;;;5015803;28;20287;-58
2022/07/09 09:33:24;;;;;;;;;;;21.10;99.90;;;;;;5016750;28;19905;-57
2022/07/09 09:35:50;;;;;;;;;;;21.10;99.90;;;;;;5035565;28;20446;-58
2022/07/09 09:38:22;;;;;;;;;;;21.10;99.90;;;;;;5031387;28;19916;-58
2022/07/09 09:40:47;;;;;;;;;;;21.30;99.90;;;;;;5014036;28;19917;-58
2022/07/09 09:43:14;;;;;;;;;;;21.40;99.90;;;;;;5013112;28;19909;-56
2022/07/09 09:45:39;;;;;;;;;;;21.60;99.90;;;;;;5014428;28;20258;-58
2022/07/09 09:48:06;;;;;;;;;;;21.80;99.90;;;;;;5014385;28;19905;-57
2022/07/09 09:50:32;;;;;;;;;;;21.70;99.90;;;;;;5031067;28;19905;-57
2022/07/09 09:52:58;;;;;;;;;;;21.70;99.90;;;;;;5026563;28;19912;-55
2022/07/09 09:55:23;;;;;;;;;;;21.80;99.90;;;;;;5034890;28;20270;-59
2022/07/09 09:57:49;;;;;;;;;;;21.90;99.90;;;;;;5018277;28;20438;-60
2022/07/09 10:00:15;;;;;;;;;;;22.00;99.90;;;;;;5012790;28;19995;-58
2022/07/09 10:02:43;;;;;;;;;;;22.00;99.90;;;;;;5014471;28;19948;-59
2022/07/09 10:05:08;;;;;;;;;;;22.20;99.90;;;;;;5014228;28;19909;-59
2022/07/09 10:07:34;;;;;;;;;;;22.30;99.90;;;;;;5015297;28;19912;-59
2022/07/09 10:10:00;;;;;;;;;;;22.40;99.90;;;;;;5013238;28;19910;-58
2022/07/09 10:12:29;;;;;;;;;;;22.40;99.90;;;;;;5014762;28;20356;-58
2022/07/09 10:14:55;;;;;;;;;;;22.40;99.90;;;;;;5021084;28;19910;-58
2022/07/09 10:17:21;;;;;;;;;;;22.40;99.90;;;;;;5013249;28;19975;-56
2022/07/09 10:19:57;;;;;;;;;;;22.40;99.90;;;;;;5015044;28;20013;-54
2022/07/09 10:22:35;;;;;;;;;;;22.30;99.90;;;;;;5010584;28;20371;-57
2022/07/09 10:25:00;;;;;;;;;;;22.10;99.90;;;;;;5020642;28;19909;-57
2022/07/09 10:27:26;;;;;;;;;;;21.70;99.90;;;;;;5011767;28;19905;-56
2022/07/09 10:29:53;;;;;;;;;;;21.50;99.90;;;;;;5012954;28;19925;-54
2022/07/09 10:32:29;;;;;;;;;;;20.80;99.90;;;;;;5023871;28;19909;-55
2022/07/09 10:34:58;;;;;;;;;;;20.00;99.90;;;;;;5013543;28;20449;-56
2022/07/09 10:37:30;;;;;;;;;;;19.30;99.90;;;;;;5033504;28;19905;-56
2022/07/09 10:39:56;;;;;;;;;;;18.70;99.90;;;;;;5003477;28;19913;-57
2022/07/09 10:42:23;;;;;;;;;;;18.40;99.90;;;;;;5014708;28;19913;-53
2022/07/09 10:44:53;;;;;;;;;;;18.20;99.90;;;;;;5013811;28;19906;-56
2022/07/09 10:47:19;;;;;;;;;;;18.00;99.90;;;;;;5014978;28;19917;-58
2022/07/09 10:49:44;;;;;;;;;;;17.90;99.90;;;;;;5031186;28;19924;-57
2022/07/09 10:52:10;;;;;;;;;;;17.90;99.90;;;;;;5034864;28;19936;-57
2022/07/09 10:54:45;;;;;;;;;;;17.90;99.90;;;;;;5034637;28;19905;-57
2022/07/09 10:57:10;;;;;;;;;;;18.00;99.90;;;;;;5034836;28;19959;-57
2022/07/09 10:59:36;;;;;;;;;;;18.10;99.90;;;;;;5033306;28;20303;-56
2022/07/09 11:02:02;;;;;;;;;;;18.10;99.90;;;;;;5034369;28;19912;-57
2022/07/09 11:04:28;;;;;;;;;;;18.20;99.90;;;;;;5029240;28;19913;-57
2022/07/09 11:06:54;;;;;;;;;;;18.40;99.90;;;;;;5034762;28;19981;-58
2022/07/09 11:09:20;;;;;;;;;;;18.60;99.90;;;;;;5014318;28;20429;-57
2022/07/09 11:11:47;;;;;;;;;;;18.90;99.90;;;;;;5002478;28;19913;-58
2022/07/09 11:14:13;;;;;;;;;;;19.20;99.90;;;;;;4995055;28;20375;-57
2022/07/09 11:16:38;;;;;;;;;;;19.40;99.90;;;;;;5012532;28;19909;-56
2022/07/09 11:19:16;;;;;;;;;;;19.50;99.90;;;;;;5034375;28;19916;-58
2022/07/09 11:21:42;;;;;;;;;;;19.60;99.90;;;;;;5031081;28;19934;-58
2022/07/09 11:24:18;;;;;;;;;;;19.60;99.90;;;;;;5033717;28;19909;-58
2022/07/09 11:26:44;;;;;;;;;;;19.80;99.90;;;;;;5033205;28;19913;-57
2022/07/09 11:29:10;;;;;;;;;;;20.00;99.90;;;;;;5034331;28;20381;-56
2022/07/09 11:31:36;;;;;;;;;;;20.20;99.90;;;;;;5033487;28;19913;-58
2022/07/09 11:34:11;;;;;;;;;;;20.50;99.90;;;;;;5024296;28;19916;-59
2022/07/09 11:36:37;;;;;;;;;;;20.80;99.90;;;;;;5016361;28;20437;-58
2022/07/09 11:39:03;;;;;;;;;;;21.10;99.90;;;;;;5014614;28;19910;-58
2022/07/09 11:41:39;;;;;;;;;;;21.20;99.90;;;;;;5015074;28;19905;-60
2022/07/09 11:44:04;;;;;;;;;;;21.20;99.90;;;;;;5014354;28;19905;-61
2022/07/09 11:46:30;;;;;;;;;;;21.10;99.90;;;;;;5021222;28;20350;-59
2022/07/09 11:48:55;;;;;;;;;;;20.90;99.90;;;;;;5028259;28;19909;-58
2022/07/09 11:51:31;;;;;;;;;;;20.80;99.90;;;;;;5015653;28;19957;-59
2022/07/09 11:53:56;;;;;;;;;;;20.60;99.90;;;;;;5013284;28;20011;-60
2022/07/09 11:56:22;;;;;;;;;;;20.50;99.90;;;;;;5021026;28;19909;-58
2022/07/09 11:58:51;;;;;;;;;;;20.60;99.90;;;;;;5018184;28;19909;-58
2022/07/09 12:01:16;;;;;;;;;;;20.60;99.90;;;;;;5013060;28;19905;-58
2022/07/09 12:03:49;;;;;;;;;;;20.60;99.90;;;;;;5013721;28;19963;-60
2022/07/09 12:06:15;;;;;;;;;;;20.60;99.90;;;;;;5022274;28;20246;-58
2022/07/09 12:08:40;;;;;;;;;;;20.60;99.90;;;;;;5034510;28;19905;-59
2022/07/09 12:11:06;;;;;;;;;;;20.40;99.90;;;;;;5022503;28;20384;-59
2022/07/09 12:13:31;;;;;;;;;;;20.40;99.90;;;;;;5014857;28;19905;-61
2022/07/09 12:15:57;;;;;;;;;;;20.40;99.90;;;;;;5018653;28;19909;-61
2022/07/09 12:18:23;;;;;;;;;;;20.40;99.90;;;;;;5021715;28;19917;-59
2022/07/09 12:20:48;;;;;;;;;;;20.30;99.90;;;;;;5016255;28;20377;-58
2022/07/09 12:23:14;;;;;;;;;;;20.30;99.90;;;;;;5013765;28;19909;-57
2022/07/09 12:25:40;;;;;;;;;;;20.30;99.90;;;;;;5009204;28;20367;-61
2022/07/09 12:28:05;;;;;;;;;;;20.40;99.90;;;;;;5001857;28;19912;-59
2022/07/09 12:30:31;;;;;;;;;;;20.50;99.90;;;;;;4994516;28;19906;-59
2022/07/09 12:32:59;;;;;;;;;;;20.50;99.90;;;;;;4994738;28;20421;-59
2022/07/09 12:35:25;;;;;;;;;;;20.50;99.90;;;;;;4999088;28;20036;-59
2022/07/09 12:37:51;;;;;;;;;;;20.40;99.90;;;;;;5016099;28;20293;-58
2022/07/09 12:40:17;;;;;;;;;;;20.30;99.90;;;;;;5021119;28;19913;-57
2022/07/09 12:42:43;;;;;;;;;;;20.30;99.90;;;;;;5028814;28;20426;-57
2022/07/09 12:45:08;;;;;;;;;;;20.20;99.90;;;;;;5035203;28;19909;-58
2022/07/09 12:47:34;;;;;;;;;;;20.10;99.90;;;;;;5038074;28;19905;-58
2022/07/09 12:50:02;;;;;;;;;;;20.20;99.90;;;;;;5038331;28;20226;-59
2022/07/09 12:52:29;;;;;;;;;;;20.30;99.90;;;;;;5038139;28;19971;-58
2022/07/09 12:54:55;;;;;;;;;;;20.50;99.90;;;;;;5037748;28;19940;-57
2022/07/09 12:57:20;;;;;;;;;;;20.60;99.90;;;;;;5037614;28;19912;-59
2022/07/09 12:59:46;;;;;;;;;;;20.70;99.90;;;;;;5037475;28;19913;-56
2022/07/09 13:02:11;;;;;;;;;;;20.80;99.90;;;;;;5020368;28;19942;-59
2022/07/09 13:04:37;;;;;;;;;;;21.00;99.90;;;;;;5016267;28;19906;-60
2022/07/09 13:07:03;;;;;;;;;;;20.90;99.90;;;;;;5021584;28;19905;-59
2022/07/09 13:09:28;;;;;;;;;;;21.00;99.90;;;;;;5018802;28;19909;-58
2022/07/09 13:11:54;;;;;;;;;;;21.00;99.90;;;;;;5022766;28;20392;-59
2022/07/09 13:14:19;;;;;;;;;;;21.00;99.90;;;;;;5022095;28;20009;-59
2022/07/09 13:16:45;;;;;;;;;;;21.00;99.90;;;;;;5014009;28;19909;-59
2022/07/09 13:19:10;;;;;;;;;;;20.60;99.90;;;;;;5023304;28;19920;-59
2022/07/09 13:21:36;;;;;;;;;;;20.30;99.90;;;;;;5022692;28;19905;-60
2022/07/09 13:24:02;;;;;;;;;;;20.10;99.90;;;;;;5021495;28;19913;-58
2022/07/09 13:26:28;;;;;;;;;;;20.00;99.90;;;;;;5024102;28;19916;-61
2022/07/09 13:28:53;;;;;;;;;;;20.10;99.90;;;;;;5021315;28;19910;-61
2022/07/09 13:31:21;;;;;;;;;;;20.30;99.90;;;;;;5021281;28;20422;-59
2022/07/09 13:33:46;;;;;;;;;;;20.40;99.90;;;;;;5025943;28;19934;-58
2022/07/09 13:36:12;;;;;;;;;;;20.50;99.90;;;;;;5026254;28;19909;-60
2022/07/09 13:38:37;;;;;;;;;;;20.50;99.90;;;;;;5023589;28;19913;-60
2022/07/09 13:41:03;;;;;;;;;;;20.40;99.90;;;;;;5026125;28;20259;-61
2022/07/09 13:43:28;;;;;;;;;;;20.40;99.90;;;;;;5026506;28;19905;-57
2022/07/09 13:45:54;;;;;;;;;;;20.40;99.90;;;;;;5025469;28;19917;-61
2022/07/09 13:48:20;;;;;;;;;;;20.50;99.90;;;;;;5023998;28;20452;-57
2022/07/09 13:50:46;;;;;;;;;;;20.60;99.90;;;;;;5021865;28;19988;-58
2022/07/09 13:53:11;;;;;;;;;;;20.70;99.90;;;;;;5024454;28;19967;-59
2022/07/09 13:55:37;;;;;;;;;;;20.60;99.90;;;;;;5019507;28;19927;-59
2022/07/09 13:58:02;;;;;;;;;;;20.60;99.90;;;;;;5024299;28;19909;-57
2022/07/09 14:00:28;;;;;;;;;;;20.50;99.90;;;;;;5026680;28;20441;-56
2022/07/09 14:02:53;;;;;;;;;;;20.40;99.90;;;;;;5022953;28;19933;-59
2022/07/09 14:05:19;;;;;;;;;;;20.40;99.90;;;;;;5024211;28;20271;-59
2022/07/09 14:07:45;;;;;;;;;;;20.30;99.90;;;;;;5021760;28;19906;-58
2022/07/09 14:10:11;;;;;;;;;;;20.40;99.90;;;;;;5024319;28;19947;-57